createdAt,value
2023-02-20T00:01:48.254Z,3.34
2023-02-20T00:04:14.549Z,3.33
2023-02-20T00:06:42.952Z,3.39
2023-02-20T00:09:09.582Z,3.45
2023-02-20T00:11:35.934Z,3.45
2023-02-20T00:14:02.270Z,3.47
2023-02-20T00:16:28.571Z,3.46
2023-02-20T00:18:54.891Z,3.41
2023-02-20T00:21:21.204Z,3.36
2023-02-20T00:23:47.506Z,3.43
2023-02-20T00:26:14.076Z,3.39
2023-02-20T00:28:40.690Z,3.44
2023-02-20T00:31:07.375Z,3.51
2023-02-20T00:33:33.873Z,3.41
2023-02-20T00:36:00.201Z,3.33
2023-02-20T00:38:26.530Z,3.43
2023-02-20T00:40:52.897Z,3.51
2023-02-20T00:43:19.269Z,3.57
2023-02-20T00:45:45.599Z,3.48
2023-02-20T00:48:11.902Z,3.52
2023-02-20T00:50:38.234Z,3.53
2023-02-20T00:53:04.610Z,3.56
2023-02-20T00:55:30.919Z,3.55
2023-02-20T00:57:57.249Z,3.61
2023-02-20T01:00:23.639Z,3.75
2023-02-20T01:02:50.009Z,3.74
2023-02-20T01:05:16.308Z,3.78
2023-02-20T01:07:42.640Z,3.81
2023-02-20T01:10:08.942Z,3.68
2023-02-20T01:12:35.271Z,3.69
2023-02-20T01:15:01.639Z,3.69
2023-02-20T01:17:27.955Z,3.53
2023-02-20T01:19:55.976Z,3.46
2023-02-20T01:22:22.299Z,3.42
2023-02-20T01:24:48.919Z,3.56
2023-02-20T01:27:15.307Z,3.58
2023-02-20T01:29:41.649Z,3.56
2023-02-20T01:32:08.079Z,3.40
2023-02-20T01:34:34.442Z,3.53
2023-02-20T01:37:00.778Z,3.51
2023-02-20T01:39:27.117Z,3.59
2023-02-20T01:41:53.424Z,3.67
2023-02-20T01:44:19.772Z,3.58
2023-02-20T01:46:46.182Z,3.59
2023-02-20T01:49:12.548Z,3.78
2023-02-20T01:51:38.857Z,3.82
2023-02-20T01:54:05.186Z,3.84
2023-02-20T01:56:31.501Z,3.83
2023-02-20T01:58:57.830Z,3.78
2023-02-20T02:01:24.145Z,3.80
2023-02-20T02:03:55.039Z,3.89
2023-02-20T02:06:21.455Z,3.78
2023-02-20T02:08:47.808Z,3.81
2023-02-20T02:11:14.127Z,3.87
2023-02-20T02:13:40.454Z,3.81
2023-02-20T02:16:06.773Z,3.82
2023-02-20T02:18:33.091Z,3.81
2023-02-20T02:20:59.411Z,3.95
2023-02-20T02:23:25.727Z,3.93
2023-02-20T02:25:52.049Z,3.99
2023-02-20T02:28:18.354Z,3.90
2023-02-20T02:30:44.701Z,3.90
2023-02-20T02:33:11.092Z,3.76
2023-02-20T02:35:37.402Z,3.79
2023-02-20T02:38:03.758Z,3.73
2023-02-20T02:40:30.093Z,3.83
2023-02-20T02:42:56.463Z,3.93
2023-02-20T02:45:22.796Z,3.85
2023-02-20T02:47:49.394Z,3.88
2023-02-20T02:50:15.735Z,3.97
2023-02-20T02:52:51.428Z,3.89
2023-02-20T02:55:17.805Z,3.89
2023-02-20T02:57:44.144Z,4.00
2023-02-20T03:00:10.865Z,4.03
2023-02-20T03:02:37.270Z,4.18
2023-02-20T03:05:03.919Z,4.06
2023-02-20T03:07:30.225Z,4.11
2023-02-20T03:09:56.525Z,4.08
2023-02-20T03:12:22.829Z,4.18
2023-02-20T03:15:08.092Z,4.28
2023-02-20T03:17:34.465Z,4.25
2023-02-20T03:20:00.806Z,4.20
2023-02-20T03:22:27.141Z,4.21
2023-02-20T03:24:56.543Z,4.29
2023-02-20T03:27:22.857Z,4.18
2023-02-20T03:29:49.163Z,4.30
2023-02-20T03:32:34.378Z,4.29
2023-02-20T03:35:19.699Z,4.63
2023-02-20T03:38:04.653Z,5.05
2023-02-20T03:40:49.466Z,5.14
2023-02-20T03:43:33.105Z,5.26
2023-02-20T03:45:59.482Z,5.34
2023-02-20T03:48:25.910Z,5.40
2023-02-20T03:50:52.238Z,5.39
2023-02-20T03:53:18.550Z,5.47
2023-02-20T03:55:44.858Z,5.46
2023-02-20T03:58:11.177Z,5.54
2023-02-20T04:00:37.495Z,5.59
2023-02-20T04:03:03.801Z,5.67
2023-02-20T04:05:30.132Z,5.66
2023-02-20T04:07:56.435Z,5.74
2023-02-20T04:10:22.765Z,5.71
2023-02-20T04:12:49.092Z,5.67
2023-02-20T04:15:15.409Z,5.72
2023-02-20T04:17:41.716Z,5.76
2023-02-20T04:20:08.039Z,5.77
2023-02-20T04:22:34.347Z,5.83
2023-02-20T04:25:00.674Z,5.83
2023-02-20T04:27:27.015Z,5.75
2023-02-20T04:29:53.318Z,5.72
2023-02-20T04:32:19.665Z,5.72
2023-02-20T04:34:46.009Z,5.75
2023-02-20T04:37:12.340Z,5.82
2023-02-20T04:39:38.687Z,5.77
2023-02-20T04:42:05.038Z,5.75
2023-02-20T04:44:31.374Z,5.82
2023-02-20T04:46:57.669Z,5.87
2023-02-20T04:49:23.976Z,5.86
2023-02-20T04:51:50.282Z,5.85
2023-02-20T04:54:16.581Z,5.98
2023-02-20T04:56:42.896Z,6.02
2023-02-20T04:59:09.235Z,6.04
2023-02-20T05:01:35.618Z,6.01
2023-02-20T05:04:01.978Z,6.09
2023-02-20T05:06:28.318Z,6.08
2023-02-20T05:08:54.623Z,6.11
2023-02-20T05:11:20.927Z,6.07
2023-02-20T05:13:47.244Z,6.12
2023-02-20T05:16:16.740Z,6.21
2023-02-20T05:18:43.150Z,6.18
2023-02-20T05:21:28.483Z,6.24
2023-02-20T05:23:54.781Z,6.30
2023-02-20T05:26:21.117Z,6.27
2023-02-20T05:28:47.433Z,6.31
2023-02-20T05:31:17.040Z,6.27
2023-02-20T05:33:43.893Z,6.33
2023-02-20T05:36:10.360Z,6.32
2023-02-20T05:38:36.814Z,6.38
2023-02-20T05:41:03.145Z,6.37
2023-02-20T05:43:29.484Z,6.47
2023-02-20T05:45:55.796Z,6.43
2023-02-20T05:48:22.153Z,6.51
2023-02-20T05:50:50.627Z,6.56
2023-02-20T05:53:16.918Z,6.44
2023-02-20T05:55:43.223Z,6.50
2023-02-20T05:58:09.613Z,6.48
2023-02-20T06:00:35.923Z,6.47
2023-02-20T06:03:02.324Z,6.44
2023-02-20T06:05:29.462Z,6.46
2023-02-20T06:07:55.931Z,6.40
2023-02-20T06:10:22.302Z,6.42
2023-02-20T06:12:48.811Z,6.37
2023-02-20T06:15:15.122Z,6.39
2023-02-20T06:17:43.817Z,6.43
2023-02-20T06:20:11.003Z,6.44
2023-02-20T06:22:37.474Z,6.45
2023-02-20T06:25:03.784Z,6.49
2023-02-20T06:27:30.119Z,6.49
2023-02-20T06:29:56.454Z,6.56
2023-02-20T06:32:22.778Z,6.62
2023-02-20T06:34:49.188Z,6.70
2023-02-20T06:37:15.496Z,6.78
2023-02-20T06:39:43.238Z,6.77
2023-02-20T06:42:09.543Z,6.92
2023-02-20T06:44:35.883Z,6.92
2023-02-20T06:47:02.268Z,6.95
2023-02-20T06:49:28.616Z,6.91
2023-02-20T06:51:54.941Z,6.94
2023-02-20T06:54:22.331Z,6.93
2023-02-20T06:56:48.669Z,6.99
2023-02-20T06:59:15.153Z,7.02
2023-02-20T07:01:41.596Z,7.05
2023-02-20T07:04:07.933Z,7.06
2023-02-20T07:06:34.248Z,7.01
2023-02-20T07:09:00.574Z,7.06
2023-02-20T07:11:26.877Z,7.08
2023-02-20T07:13:53.212Z,7.13
2023-02-20T07:16:19.578Z,7.14
2023-02-20T07:18:46.144Z,7.17
2023-02-20T07:21:12.549Z,7.20
2023-02-20T07:23:38.879Z,7.29
2023-02-20T07:26:05.192Z,7.35
2023-02-20T07:28:31.527Z,7.37
2023-02-20T07:30:57.833Z,7.46
2023-02-20T07:33:24.164Z,7.47
2023-02-20T07:35:50.523Z,7.54
2023-02-20T07:38:16.855Z,7.51
2023-02-20T07:40:43.232Z,7.66
2023-02-20T07:43:09.578Z,7.57
2023-02-20T07:45:35.956Z,7.62
2023-02-20T07:48:02.309Z,7.67
2023-02-20T07:50:28.881Z,7.69
2023-02-20T07:52:55.264Z,7.95
2023-02-20T07:55:21.639Z,8.09
2023-02-20T07:57:47.975Z,8.21
2023-02-20T08:00:14.429Z,8.13
2023-02-20T08:02:40.738Z,8.09
2023-02-20T08:05:07.134Z,8.33
2023-02-20T08:07:33.507Z,8.29
2023-02-20T08:09:59.869Z,8.15
2023-02-20T08:12:26.182Z,8.24
2023-02-20T08:14:52.512Z,8.16
2023-02-20T08:17:18.810Z,8.24
2023-02-20T08:19:45.126Z,8.31
2023-02-20T08:22:11.639Z,8.45
2023-02-20T08:24:37.990Z,8.49
2023-02-20T08:27:04.307Z,8.59
2023-02-20T08:29:30.658Z,8.82
2023-02-20T08:31:57.050Z,8.90
2023-02-20T08:34:23.460Z,9.02
2023-02-20T08:36:49.782Z,8.93
2023-02-20T08:39:16.332Z,8.97
2023-02-20T08:41:42.719Z,9.30
2023-02-20T08:44:09.076Z,9.84
2023-02-20T08:46:35.405Z,10.13
2023-02-20T08:49:02.436Z,9.93
2023-02-20T08:51:28.790Z,10.17
2023-02-20T08:53:55.114Z,9.98
2023-02-20T08:56:21.465Z,9.60
2023-02-20T08:58:47.814Z,9.71
2023-02-20T09:01:14.119Z,9.67
2023-02-20T09:03:41.952Z,9.80
2023-02-20T09:06:08.354Z,9.84
2023-02-20T09:08:34.706Z,9.78
2023-02-20T09:11:01.162Z,9.95
2023-02-20T09:13:27.549Z,10.10
2023-02-20T09:15:53.903Z,10.01
2023-02-20T09:18:20.418Z,10.12
2023-02-20T09:20:48.335Z,10.22
2023-02-20T09:23:14.793Z,9.98
2023-02-20T09:25:41.163Z,10.14
2023-02-20T09:28:09.020Z,10.10
2023-02-20T09:30:35.440Z,10.27
2023-02-20T09:33:01.836Z,10.05
2023-02-20T09:35:28.201Z,10.17
2023-02-20T09:37:54.519Z,10.22
2023-02-20T09:40:20.851Z,10.27
2023-02-20T09:42:47.732Z,10.51
2023-02-20T09:45:15.537Z,10.34
2023-02-20T09:47:41.887Z,10.39
2023-02-20T09:50:08.200Z,10.26
2023-02-20T09:52:34.532Z,10.35
2023-02-20T09:55:00.852Z,10.40
2023-02-20T09:57:27.251Z,10.38
2023-02-20T09:59:53.589Z,10.45
2023-02-20T10:02:19.983Z,10.55
2023-02-20T10:04:59.991Z,10.61
2023-02-20T10:07:27.102Z,10.65
2023-02-20T10:09:53.430Z,10.71
2023-02-20T10:12:19.746Z,10.78
2023-02-20T10:14:46.129Z,10.79
2023-02-20T10:17:12.524Z,10.73
2023-02-20T10:19:38.962Z,10.74
2023-02-20T10:22:05.352Z,10.74
2023-02-20T10:24:31.714Z,10.82
2023-02-20T10:26:58.024Z,10.84
2023-02-20T10:29:24.343Z,10.96
2023-02-20T10:31:50.814Z,10.99
2023-02-20T10:34:17.641Z,11.02
2023-02-20T10:36:43.995Z,11.09
2023-02-20T10:39:10.356Z,11.11
2023-02-20T10:41:36.790Z,11.06
2023-02-20T10:44:03.198Z,11.13
2023-02-20T10:46:39.798Z,11.14
2023-02-20T10:49:12.958Z,11.19
2023-02-20T10:51:39.292Z,11.15
2023-02-20T10:54:05.599Z,11.15
2023-02-20T10:56:31.975Z,11.19
2023-02-20T10:58:58.303Z,11.25
2023-02-20T11:01:24.763Z,11.38
2023-02-20T11:03:51.176Z,11.41
2023-02-20T11:06:17.543Z,11.42
2023-02-20T11:08:43.906Z,11.57
2023-02-20T11:11:10.408Z,11.55
2023-02-20T11:13:36.981Z,11.51
2023-02-20T11:16:03.328Z,11.56
2023-02-20T11:18:29.787Z,11.36
2023-02-20T11:20:56.840Z,11.52
2023-02-20T11:23:23.177Z,11.57
2023-02-20T11:25:49.571Z,11.58
2023-02-20T11:28:15.905Z,11.83
2023-02-20T11:30:42.317Z,11.66
2023-02-20T11:33:08.719Z,11.81
2023-02-20T11:35:35.112Z,11.83
2023-02-20T11:38:01.549Z,11.73
2023-02-20T11:40:28.398Z,11.96
2023-02-20T11:42:54.817Z,12.11
2023-02-20T11:45:21.139Z,12.25
2023-02-20T11:47:47.462Z,12.18
2023-02-20T11:50:19.629Z,12.12
2023-02-20T11:52:46.747Z,12.16
2023-02-20T11:55:13.125Z,12.30
2023-02-20T11:57:39.522Z,12.16
2023-02-20T12:00:05.892Z,12.30
2023-02-20T12:02:32.241Z,12.31
2023-02-20T12:04:58.747Z,12.20
2023-02-20T12:07:25.081Z,12.27
2023-02-20T12:09:51.440Z,12.32
2023-02-20T12:12:18.580Z,12.23
2023-02-20T12:14:44.898Z,12.36
2023-02-20T12:17:11.253Z,12.37
2023-02-20T12:19:37.675Z,12.45
2023-02-20T12:22:03.998Z,12.56
2023-02-20T12:24:30.430Z,12.69
2023-02-20T12:26:56.937Z,12.84
2023-02-20T12:29:27.613Z,13.02
2023-02-20T12:31:55.148Z,13.08
2023-02-20T12:34:21.555Z,13.28
2023-02-20T12:36:47.880Z,13.03
2023-02-20T12:39:14.194Z,13.26
2023-02-20T12:41:40.525Z,13.25
2023-02-20T12:44:13.331Z,13.07
2023-02-20T12:46:40.236Z,13.13
2023-02-20T12:49:06.578Z,12.89
2023-02-20T12:51:33.521Z,13.02
2023-02-20T12:54:00.027Z,13.10
2023-02-20T12:56:26.347Z,13.23
2023-02-20T12:58:52.647Z,12.90
2023-02-20T13:01:27.668Z,12.95
2023-02-20T13:04:00.911Z,12.76
2023-02-20T13:06:27.281Z,12.82
2023-02-20T13:08:53.749Z,12.72
2023-02-20T13:11:20.105Z,12.83
2023-02-20T13:13:46.414Z,12.86
2023-02-20T13:16:13.070Z,12.78
2023-02-20T13:18:39.605Z,12.75
2023-02-20T13:21:06.691Z,12.72
2023-02-20T13:23:33.088Z,12.78
2023-02-20T13:25:59.450Z,12.69
2023-02-20T13:28:25.789Z,12.73
2023-02-20T13:30:52.090Z,12.71
2023-02-20T13:33:18.414Z,12.84
2023-02-20T13:35:44.720Z,12.92
2023-02-20T13:38:11.084Z,12.99
2023-02-20T13:40:37.414Z,12.94
2023-02-20T13:43:03.783Z,12.98
2023-02-20T13:45:30.156Z,12.89
2023-02-20T13:47:56.500Z,12.88
2023-02-20T13:50:22.821Z,12.98
2023-02-20T13:52:56.591Z,12.86
2023-02-20T13:55:22.989Z,12.90
2023-02-20T13:57:49.408Z,12.99
2023-02-20T14:00:15.752Z,12.90
2023-02-20T14:02:42.069Z,13.02
2023-02-20T14:05:08.776Z,12.93
2023-02-20T14:07:37.434Z,12.89
2023-02-20T14:10:03.825Z,12.99
2023-02-20T14:12:30.234Z,13.02
2023-02-20T14:14:56.629Z,12.92
2023-02-20T14:17:23.031Z,13.00
2023-02-20T14:19:49.355Z,12.97
2023-02-20T14:22:15.790Z,13.03
2023-02-20T14:24:42.107Z,12.91
2023-02-20T14:27:08.432Z,12.93
2023-02-20T14:29:36.699Z,12.88
2023-02-20T14:32:03.212Z,12.94
2023-02-20T14:34:29.606Z,13.02
2023-02-20T14:36:55.929Z,12.85
2023-02-20T14:39:22.277Z,12.93
2023-02-20T14:41:48.597Z,12.89
2023-02-20T14:44:16.395Z,12.84
2023-02-20T14:46:42.711Z,12.77
2023-02-20T14:49:09.106Z,12.81
2023-02-20T14:51:35.434Z,12.84
2023-02-20T14:54:01.769Z,12.71
2023-02-20T14:56:28.120Z,12.74
2023-02-20T14:58:54.460Z,12.76
2023-02-20T15:01:20.867Z,12.78
2023-02-20T15:03:47.266Z,12.72
2023-02-20T15:06:13.828Z,12.72
2023-02-20T15:08:40.464Z,12.64
2023-02-20T15:11:07.976Z,12.67
2023-02-20T15:13:34.330Z,12.56
2023-02-20T15:16:00.650Z,12.54
2023-02-20T15:18:26.971Z,12.45
2023-02-20T15:20:53.278Z,12.43
2023-02-20T15:23:19.634Z,12.38
2023-02-20T15:25:45.943Z,12.39
2023-02-20T15:28:12.352Z,12.35
2023-02-20T15:30:38.721Z,12.35
2023-02-20T15:33:05.222Z,12.40
2023-02-20T15:35:32.818Z,12.43
2023-02-20T15:37:59.123Z,12.36
2023-02-20T15:40:25.608Z,12.32
2023-02-20T15:42:56.915Z,12.27
2023-02-20T15:45:23.905Z,12.35
2023-02-20T15:47:50.288Z,12.26
2023-02-20T15:50:16.639Z,12.23
2023-02-20T15:52:42.944Z,12.23
2023-02-20T15:55:09.259Z,12.15
2023-02-20T15:57:35.578Z,12.16
2023-02-20T16:00:01.890Z,12.19
2023-02-20T16:02:28.359Z,12.24
2023-02-20T16:04:54.749Z,12.09
2023-02-20T16:07:21.396Z,12.11
2023-02-20T16:09:47.806Z,12.10
2023-02-20T16:12:14.118Z,12.05
2023-02-20T16:14:40.433Z,12.00
2023-02-20T16:17:06.753Z,12.00
2023-02-20T16:19:42.140Z,12.03
2023-02-20T16:22:09.216Z,11.98
2023-02-20T16:24:36.490Z,11.97
2023-02-20T16:27:05.740Z,12.02
2023-02-20T16:29:32.656Z,12.00
2023-02-20T16:31:59.039Z,12.03
2023-02-20T16:34:25.487Z,11.96
2023-02-20T16:36:51.804Z,11.94
2023-02-20T16:39:26.359Z,11.98
2023-02-20T16:41:53.131Z,11.95
2023-02-20T16:44:19.466Z,11.92
2023-02-20T16:46:45.890Z,11.92
2023-02-20T16:49:12.291Z,11.99
2023-02-20T16:51:38.654Z,12.08
2023-02-20T16:54:07.025Z,12.14
2023-02-20T16:56:33.371Z,12.16
2023-02-20T16:58:59.751Z,12.14
2023-02-20T17:01:26.107Z,12.14
2023-02-20T17:03:52.470Z,12.26
2023-02-20T17:06:20.527Z,12.22
2023-02-20T17:08:46.886Z,12.28
2023-02-20T17:11:13.486Z,12.25
2023-02-20T17:13:39.981Z,12.25
2023-02-20T17:16:06.403Z,12.15
2023-02-20T17:18:32.743Z,12.20
2023-02-20T17:20:59.154Z,12.25
2023-02-20T17:23:25.507Z,12.14
2023-02-20T17:25:51.813Z,12.09
2023-02-20T17:28:18.204Z,12.21
2023-02-20T17:30:44.564Z,12.22
2023-02-20T17:33:10.938Z,12.22
2023-02-20T17:35:37.256Z,12.24
2023-02-20T17:38:03.567Z,12.22
2023-02-20T17:40:29.987Z,12.24
2023-02-20T17:42:56.345Z,12.25
2023-02-20T17:45:22.678Z,12.28
2023-02-20T17:47:49.000Z,12.27
2023-02-20T17:50:15.314Z,12.24
2023-02-20T17:52:45.078Z,12.26
2023-02-20T17:55:11.715Z,12.28
2023-02-20T17:57:38.005Z,12.22
2023-02-20T18:00:04.336Z,12.22
2023-02-20T18:02:30.640Z,12.16
2023-02-20T18:04:56.993Z,12.05
2023-02-20T18:07:23.336Z,11.89
2023-02-20T18:09:49.718Z,11.91
2023-02-20T18:12:16.061Z,11.70
2023-02-20T18:14:42.406Z,11.56
2023-02-20T18:17:08.865Z,11.54
2023-02-20T18:19:35.220Z,11.38
2023-02-20T18:22:01.532Z,11.36
2023-02-20T18:24:30.236Z,11.28
2023-02-20T18:26:57.063Z,11.13
2023-02-20T18:29:25.247Z,11.01
2023-02-20T18:31:51.744Z,10.73
2023-02-20T18:34:18.201Z,10.77
2023-02-20T18:36:44.542Z,10.61
2023-02-20T18:39:11.163Z,10.34
2023-02-20T18:41:37.658Z,10.36
2023-02-20T18:44:03.966Z,10.35
2023-02-20T18:46:30.367Z,10.53
2023-02-20T18:48:57.168Z,10.34
2023-02-20T18:51:25.201Z,10.15
2023-02-20T18:53:51.593Z,10.28
2023-02-20T18:58:49.042Z,10.23
2023-02-20T19:01:19.549Z,10.28
2023-02-20T19:03:46.022Z,10.25
2023-02-20T19:06:12.402Z,10.29
2023-02-20T19:08:38.782Z,10.53
2023-02-20T19:11:05.099Z,10.65
2023-02-20T19:13:31.496Z,10.41
2023-02-20T19:15:57.834Z,10.33
2023-02-20T19:18:24.138Z,10.40
2023-02-20T19:20:52.355Z,10.34
2023-02-20T19:23:18.884Z,10.39
2023-02-20T19:25:45.214Z,10.47
2023-02-20T19:28:11.821Z,10.51
2023-02-20T19:30:38.164Z,10.54
2023-02-20T19:33:04.543Z,10.57
2023-02-20T19:35:30.853Z,10.52
2023-02-20T19:37:57.163Z,10.57
2023-02-20T19:40:23.492Z,10.66
2023-02-20T19:42:49.848Z,10.55
2023-02-20T19:45:16.250Z,10.59
2023-02-20T19:47:42.596Z,10.67
2023-02-20T19:50:08.991Z,10.56
2023-02-20T19:52:35.296Z,10.47
2023-02-20T19:55:02.985Z,10.48
2023-02-20T19:57:29.367Z,10.33
2023-02-20T19:59:55.684Z,10.32
2023-02-20T20:02:25.237Z,10.37
2023-02-20T20:04:54.990Z,10.45
2023-02-20T20:07:21.306Z,10.47
2023-02-20T20:09:48.464Z,10.34
2023-02-20T20:12:33.760Z,10.43
2023-02-20T20:15:00.182Z,10.52
2023-02-20T20:17:26.577Z,10.49
2023-02-20T20:19:58.731Z,10.56
2023-02-20T20:22:25.560Z,10.51
2023-02-20T20:24:52.050Z,10.57
2023-02-20T20:27:20.902Z,10.61
2023-02-20T20:29:48.770Z,10.61
2023-02-20T20:32:16.272Z,10.42
2023-02-20T20:34:48.722Z,10.28
2023-02-20T20:37:15.035Z,10.18
2023-02-20T20:39:41.362Z,10.19
2023-02-20T20:42:07.678Z,10.20
2023-02-20T20:44:34.135Z,10.27
2023-02-20T20:47:00.437Z,10.24
2023-02-20T20:49:26.806Z,10.22
2023-02-20T20:51:53.193Z,10.21
2023-02-20T20:54:19.773Z,10.18
2023-02-20T20:56:46.181Z,10.13
2023-02-20T20:59:12.535Z,10.06
2023-02-20T21:01:38.848Z,10.03
2023-02-20T21:04:05.165Z,9.94
2023-02-20T21:06:31.510Z,9.99
2023-02-20T21:08:57.823Z,9.94
2023-02-20T21:11:24.301Z,10.01
2023-02-20T21:13:50.612Z,10.05
2023-02-20T21:16:20.970Z,10.03
2023-02-20T21:18:47.275Z,10.04
2023-02-20T21:21:13.849Z,10.13
2023-02-20T21:23:45.014Z,10.15
2023-02-20T21:26:11.312Z,10.03
2023-02-20T21:28:37.637Z,10.09
2023-02-20T21:31:04.045Z,10.21
2023-02-20T21:33:30.375Z,10.08
2023-02-20T21:35:56.702Z,10.15
2023-02-20T21:38:23.104Z,10.06
2023-02-20T21:40:49.438Z,10.13
2023-02-20T21:43:34.749Z,10.12
2023-02-20T21:46:01.129Z,10.19
2023-02-20T21:48:27.464Z,10.18
2023-02-20T21:50:53.909Z,10.16
2023-02-20T21:53:20.296Z,10.20
2023-02-20T21:55:46.621Z,10.21
2023-02-20T21:58:12.913Z,10.20
2023-02-20T22:00:39.230Z,10.22
2023-02-20T22:03:05.588Z,10.26
2023-02-20T22:05:31.908Z,10.22
2023-02-20T22:08:16.846Z,10.27
2023-02-20T22:11:01.807Z,10.25
2023-02-20T22:13:46.665Z,10.23
2023-02-20T22:16:31.564Z,10.24
2023-02-20T22:19:16.554Z,10.22
2023-02-20T22:22:01.837Z,10.20
2023-02-20T22:24:46.908Z,10.28
2023-02-20T22:27:31.828Z,10.21
2023-02-20T22:30:16.956Z,10.23
2023-02-20T22:33:02.301Z,10.21
2023-02-20T22:35:47.655Z,10.21
2023-02-20T22:38:32.589Z,10.29
2023-02-20T22:41:17.634Z,10.24
2023-02-20T22:44:02.704Z,10.17
2023-02-20T22:46:47.646Z,10.13
2023-02-20T22:49:33.011Z,10.15
2023-02-20T22:52:18.030Z,10.18
2023-02-20T22:55:08.080Z,10.16
2023-02-20T22:57:53.404Z,10.16
2023-02-20T23:00:38.413Z,10.24
2023-02-20T23:03:23.666Z,10.18
2023-02-20T23:06:17.605Z,10.14
2023-02-20T23:09:03.699Z,10.16
2023-02-20T23:11:48.663Z,10.10
2023-02-20T23:14:33.663Z,10.16
2023-02-20T23:17:29.322Z,10.16
2023-02-20T23:20:19.509Z,10.12
2023-02-20T23:23:04.552Z,10.14
2023-02-20T23:25:49.598Z,10.09
2023-02-20T23:28:37.456Z,10.17
2023-02-20T23:31:22.560Z,10.13
2023-02-20T23:34:07.706Z,10.09
2023-02-20T23:36:52.528Z,10.08
2023-02-20T23:39:37.361Z,10.00
2023-02-20T23:42:22.274Z,9.98
2023-02-20T23:45:07.198Z,9.93
2023-02-20T23:47:52.266Z,9.93
2023-02-20T23:50:37.154Z,9.89
2023-02-20T23:53:22.202Z,9.86
2023-02-20T23:56:07.092Z,9.87
2023-02-20T23:58:52.197Z,9.93
